sensor_id;sensor_type;location;lat;lon;timestamp;pressure;altitude;pressure_sealevel;temperature;humidity
51526;BME280;37611;51.794;21.590;2023-01-29T19:30:31;100128.23;;;-0.46;100.00
51526;BME280;37611;51.794;21.590;2023-01-29T19:34:33;100124.41;;;-0.52;100.00
51526;BME280;37611;51.794;21.590;2023-01-29T19:38:35;100125.48;;;-0.56;100.00
51526;BME280;37611;51.794;21.590;2023-01-29T19:42:39;100125.13;;;-0.59;100.00
51526;BME280;37611;51.794;21.590;2023-01-29T19:46:41;100118.48;;;-0.60;100.00
51526;BME280;37611;51.794;21.590;2023-01-29T19:50:50;100113.86;;;-0.57;100.00
51526;BME280;37611;51.794;21.590;2023-01-29T19:54:51;100106.16;;;-0.51;100.00
51526;BME280;37611;51.794;21.590;2023-01-29T19:58:53;100100.60;;;-0.54;100.00
51526;BME280;37611;51.794;21.590;2023-01-29T20:02:57;100101.47;;;-0.51;100.00
51526;BME280;37611;51.794;21.590;2023-01-29T20:06:59;100099.02;;;-0.56;100.00
51526;BME280;37611;51.794;21.590;2023-01-29T20:11:01;100100.68;;;-0.59;100.00
51526;BME280;37611;51.794;21.590;2023-01-29T20:15:04;100099.30;;;-0.68;100.00
51526;BME280;37611;51.794;21.590;2023-01-29T20:19:06;100094.55;;;-0.70;100.00
51526;BME280;37611;51.794;21.590;2023-01-29T20:23:12;100092.98;;;-0.69;100.00
51526;BME280;37611;51.794;21.590;2023-01-29T20:27:14;100089.07;;;-0.63;100.00
51526;BME280;37611;51.794;21.590;2023-01-29T20:31:16;100082.88;;;-0.63;100.00
51526;BME280;37611;51.794;21.590;2023-01-29T20:35:18;100074.98;;;-0.61;100.00
51526;BME280;37611;51.794;21.590;2023-01-29T20:39:19;100070.55;;;-0.65;100.00
51526;BME280;37611;51.794;21.590;2023-01-29T20:43:21;100068.52;;;-0.68;100.00
51526;BME280;37611;51.794;21.590;2023-01-29T20:47:23;100062.07;;;-0.73;100.00
51526;BME280;37611;51.794;21.590;2023-01-29T20:51:51;100060.86;;;-0.73;100.00
51526;BME280;37611;51.794;21.590;2023-01-29T20:55:53;100051.56;;;-0.66;100.00
51526;BME280;37611;51.794;21.590;2023-01-29T20:59:55;100048.07;;;-0.65;100.00
51526;BME280;37611;51.794;21.590;2023-01-29T21:03:56;100041.40;;;-0.59;100.00
51526;BME280;37611;51.794;21.590;2023-01-29T21:07:58;100032.77;;;-0.62;100.00
51526;BME280;37611;51.794;21.590;2023-01-29T21:12:00;100023.85;;;-0.63;100.00
51526;BME280;37611;51.794;21.590;2023-01-29T21:16:02;100022.16;;;-0.66;100.00
51526;BME280;37611;51.794;21.590;2023-01-29T21:20:05;100021.60;;;-0.69;100.00
51526;BME280;37611;51.794;21.590;2023-01-29T21:24:08;100023.58;;;-0.67;100.00
51526;BME280;37611;51.794;21.590;2023-01-29T21:28:13;100015.30;;;-0.67;100.00
51526;BME280;37611;51.794;21.590;2023-01-29T21:32:15;100008.08;;;-0.67;100.00
51526;BME280;37611;51.794;21.590;2023-01-29T21:36:18;100008.70;;;-0.62;100.00
51526;BME280;37611;51.794;21.590;2023-01-29T21:40:20;100006.77;;;-0.62;100.00
51526;BME280;37611;51.794;21.590;2023-01-29T21:44:22;99993.13;;;-0.60;100.00
51526;BME280;37611;51.794;21.590;2023-01-29T21:48:25;99994.45;;;-0.56;100.00
51526;BME280;37611;51.794;21.590;2023-01-29T21:52:27;99993.23;;;-0.59;100.00
51526;BME280;37611;51.794;21.590;2023-01-29T21:56:29;99990.04;;;-0.64;100.00
51526;BME280;37611;51.794;21.590;2023-01-29T22:00:30;99985.89;;;-0.64;100.00
51526;BME280;37611;51.794;21.590;2023-01-29T22:04:32;99981.90;;;-0.60;100.00
51526;BME280;37611;51.794;21.590;2023-01-29T22:08:34;99983.18;;;-0.61;100.00
51526;BME280;37611;51.794;21.590;2023-01-29T22:12:36;99976.64;;;-0.58;100.00
51526;BME280;37611;51.794;21.590;2023-01-29T22:16:38;99972.81;;;-0.60;100.00
51526;BME280;37611;51.794;21.590;2023-01-29T22:20:40;99966.69;;;-0.65;100.00
51526;BME280;37611;51.794;21.590;2023-01-29T22:24:43;99956.56;;;-0.65;100.00
51526;BME280;37611;51.794;21.590;2023-01-29T22:28:47;99947.45;;;-0.68;100.00
51526;BME280;37611;51.794;21.590;2023-01-29T22:32:49;99943.20;;;-0.69;100.00
51526;BME280;37611;51.794;21.590;2023-01-29T22:36:51;99936.30;;;-0.65;100.00
51526;BME280;37611;51.794;21.590;2023-01-29T22:40:55;99924.19;;;-0.64;100.00
51526;BME280;37611;51.794;21.590;2023-01-29T22:44:57;99926.07;;;-0.61;100.00
51526;BME280;37611;51.794;21.590;2023-01-29T22:48:59;99913.33;;;-0.67;100.00
51526;BME280;37611;51.794;21.590;2023-01-29T22:53:01;99903.52;;;-0.69;100.00
51526;BME280;37611;51.794;21.590;2023-01-29T22:57:03;99891.35;;;-0.67;100.00
51526;BME280;37611;51.794;21.590;2023-01-29T23:01:06;99876.86;;;-0.69;100.00
51526;BME280;37611;51.794;21.590;2023-01-29T23:05:08;99868.20;;;-0.71;100.00
51526;BME280;37611;51.794;21.590;2023-01-29T23:09:10;99858.13;;;-0.76;100.00
51526;BME280;37611;51.794;21.590;2023-01-29T23:13:12;99849.70;;;-0.79;100.00
51526;BME280;37611;51.794;21.590;2023-01-29T23:17:58;99839.13;;;-0.81;100.00
51526;BME280;37611;51.794;21.590;2023-01-29T23:27:04;99830.46;;;-0.70;100.00
51526;BME280;37611;51.794;21.590;2023-01-29T23:31:15;99819.29;;;-0.64;100.00
51526;BME280;37611;51.794;21.590;2023-01-29T23:35:17;99809.61;;;-0.63;100.00
51526;BME280;37611;51.794;21.590;2023-01-29T23:39:19;99800.88;;;-0.61;100.00
51526;BME280;37611;51.794;21.590;2023-01-29T23:43:21;99797.91;;;-0.60;100.00
51526;BME280;37611;51.794;21.590;2023-01-29T23:47:23;99793.42;;;-0.60;100.00
51526;BME280;37611;51.794;21.590;2023-01-29T23:51:25;99780.39;;;-0.57;100.00
51526;BME280;37611;51.794;21.590;2023-01-29T23:55:27;99776.54;;;-0.53;100.00
51526;BME280;37611;51.794;21.590;2023-01-29T23:59:28;99772.88;;;-0.49;100.00
